This is the latest recevied weather packets stored in our database for station/object SP2WM. If no packets are shown the sender has not sent any weather packets the latest 10 day(s).
| Time | Temp. | Humidity | Pressure | Rain* | Wind** | Luminosity | Snow |
|---|---|---|---|---|---|---|---|
| 1777752023 | 17.22° C | 50% | 1015.9 hPa | 0 mm | - | - | - |
| 1777750826 | 17.22° C | 48% | 1016 hPa | 0 mm | - | - | - |
| 1777750227 | 17.22° C | 49% | 1015.9 hPa | 0 mm | - | - | - |
| 1777749628 | 17.22° C | 51% | 1015.9 hPa | 0 mm | - | - | - |
| 1777749028 | 17.22° C | 50% | 1015.9 hPa | 0 mm | - | - | - |
| 1777748428 | 17.78° C | 48% | 1016 hPa | 0 mm | - | - | - |
| 1777747833 | 18.89° C | 47% | 1015.9 hPa | 0 mm | - | - | - |
| 1777746632 | 20° C | 44% | 1015.8 hPa | 0 mm | - | - | - |
| 1777746032 | 20.56° C | 42% | 1015.8 hPa | 0 mm | - | - | - |
| 1777745435 | 21.67° C | 39% | 1015.9 hPa | 0 mm | - | - | - |
| 1777744836 | 22.78° C | 37% | 1015.8 hPa | 0 mm | - | - | - |
| 1777744236 | 23.89° C | 35% | 1015.8 hPa | 0 mm | - | - | - |
| 1777743037 | 24.44° C | 32% | 1015.9 hPa | 0 mm | - | - | - |
| 1777742436 | 25° C | 31% | 1015.9 hPa | 0 mm | - | - | - |
| 1777741834 | 25° C | 31% | 1015.9 hPa | 0 mm | - | - | - |
| 1777741234 | 25° C | 30% | 1016 hPa | 0 mm | - | - | - |
| 1777739422 | 25.56° C | 28% | 1016.2 hPa | 0 mm | - | - | - |
| 1777738221 | 26.11° C | 28% | 1016.3 hPa | 0 mm | - | - | - |
| 1777737627 | 26.11° C | 27% | 1016.5 hPa | 0 mm | - | - | - |
| 1777737029 | 26.11° C | 28% | 1016.6 hPa | 0 mm | - | - | - |
| 1777736428 | 26.11° C | 27% | 1016.7 hPa | 0 mm | - | - | - |
| 1777735828 | 26.11° C | 25% | 1016.9 hPa | 0 mm | - | - | - |
| 1777735233 | 26.11° C | 27% | 1017 hPa | 0 mm | - | - | - |
| 1777734632 | 26.11° C | 27% | 1017.1 hPa | 0 mm | - | - | - |
| 1777734034 | 26.67° C | 28% | 1017.1 hPa | 0 mm | - | - | - |
* Rain latest hour (hover to see other rain measurements)
** Current wind speed in m/s (hover to see current wind gust speed)